createdAt,value
2019-01-15T00:02:38.648Z,68.92
2019-01-15T00:05:07.874Z,68.82
2019-01-15T00:07:40.061Z,67.90
2019-01-15T00:10:47.733Z,67.57
2019-01-15T00:13:33.500Z,66.73
2019-01-15T00:19:18.922Z,67.32
2019-01-15T00:21:48.253Z,68.15
2019-01-15T00:27:48.248Z,69.80
2019-01-15T00:30:20.563Z,70.57
2019-01-15T00:35:30.155Z,70.78
2019-01-15T00:44:24.421Z,70.44
2019-01-15T00:49:48.547Z,71.26
2019-01-15T00:52:20.722Z,71.08
2019-01-15T00:55:31.506Z,71.23
2019-01-15T00:58:03.624Z,71.51
2019-01-15T01:04:00.547Z,71.54
2019-01-15T01:06:45.412Z,71.60
2019-01-15T01:09:53.814Z,71.75
2019-01-15T01:12:25.221Z,71.49
2019-01-15T01:15:20.664Z,71.51
2019-01-15T01:18:30.823Z,71.04
2019-01-15T01:21:00.028Z,71.12
2019-01-15T01:23:29.356Z,71.33
2019-01-15T01:25:58.615Z,71.45
2019-01-15T01:31:29.870Z,71.40
2019-01-15T01:33:59.082Z,71.84
2019-01-15T01:36:28.930Z,71.89
2019-01-15T01:42:05.905Z,71.76
2019-01-15T01:44:35.213Z,71.59
2019-01-15T01:47:42.321Z,71.71
2019-01-15T01:50:30.616Z,71.65
2019-01-15T01:52:59.827Z,71.71
2019-01-15T01:55:48.901Z,71.68
2019-01-15T01:58:18.112Z,71.92
2019-01-15T02:03:41.804Z,71.49
2019-01-15T02:06:32.534Z,71.38
2019-01-15T02:24:15.561Z,71.00
2019-01-15T02:27:24.352Z,70.64
2019-01-15T02:30:14.420Z,70.73
2019-01-15T02:33:39.392Z,70.97
2019-01-15T02:39:14.968Z,71.60
2019-01-15T02:41:25.855Z,72.09
2019-01-15T02:43:55.124Z,72.02
2019-01-15T02:46:41.000Z,72.49
2019-01-15T02:55:34.059Z,72.83
2019-01-15T02:58:03.338Z,72.67
2019-01-15T03:01:28.810Z,72.67
2019-01-15T03:04:47.635Z,72.82
2019-01-15T03:07:40.287Z,72.75
2019-01-15T03:10:34.103Z,73.09
2019-01-15T03:13:50.275Z,74.15
2019-01-15T03:16:20.587Z,75.81
2019-01-15T03:19:31.902Z,76.21
2019-01-15T03:22:21.241Z,76.44
2019-01-15T03:25:13.477Z,76.07
2019-01-15T03:28:24.055Z,75.37
2019-01-15T03:30:53.273Z,75.05
2019-01-15T03:34:01.914Z,74.49
2019-01-15T03:36:54.012Z,74.07
2019-01-15T03:43:10.652Z,73.51
2019-01-15T03:46:08.621Z,73.32
2019-01-15T03:49:34.262Z,73.10
2019-01-15T03:52:10.540Z,73.19
2019-01-15T03:54:58.854Z,73.11
2019-01-15T03:57:30.606Z,73.87
2019-01-15T04:03:04.810Z,73.17
2019-01-15T04:06:16.075Z,73.30
2019-01-15T04:08:45.350Z,71.98
2019-01-15T04:11:54.117Z,71.71
2019-01-15T04:15:19.494Z,71.33
2019-01-15T04:17:53.462Z,71.55
2019-01-15T04:24:20.710Z,70.45
2019-01-15T04:33:12.260Z,70.84
2019-01-15T04:39:25.347Z,70.69
2019-01-15T04:47:39.584Z,70.01
2019-01-15T04:50:47.452Z,69.58
2019-01-15T04:53:16.646Z,69.43
2019-01-15T04:55:45.867Z,69.45
2019-01-15T04:58:15.071Z,69.90
2019-01-15T05:00:44.305Z,69.85
2019-01-15T05:03:13.602Z,70.25
2019-01-15T05:05:42.802Z,70.24
2019-01-15T05:08:12.001Z,70.33
2019-01-15T05:10:41.322Z,70.36
2019-01-15T05:13:10.525Z,70.58
2019-01-15T05:15:39.718Z,71.00
2019-01-15T05:18:09.418Z,71.22
2019-01-15T05:20:38.603Z,71.27
2019-01-15T05:23:08.118Z,71.36
2019-01-15T05:25:37.313Z,71.31
2019-01-15T05:28:06.526Z,71.18
2019-01-15T05:30:35.715Z,70.71
2019-01-15T05:33:04.934Z,70.55
2019-01-15T05:35:34.126Z,70.01
2019-01-15T05:38:03.318Z,69.32
2019-01-15T05:40:32.549Z,69.69
2019-01-15T05:43:01.737Z,69.30
2019-01-15T05:45:49.874Z,68.78
2019-01-15T05:48:38.276Z,68.87
2019-01-15T05:51:26.437Z,68.55
2019-01-15T05:53:55.635Z,68.30
2019-01-15T05:56:24.832Z,68.26
2019-01-15T05:58:54.535Z,68.42
2019-01-15T06:01:23.732Z,68.67
2019-01-15T06:04:32.908Z,68.87
2019-01-15T06:07:02.160Z,68.87
2019-01-15T06:09:31.676Z,68.67
2019-01-15T06:12:00.994Z,68.83
2019-01-15T06:14:30.234Z,69.06
2019-01-15T06:16:59.470Z,69.04
2019-01-15T06:19:28.817Z,69.46
2019-01-15T06:21:58.065Z,69.95
2019-01-15T06:24:46.274Z,69.83
2019-01-15T06:27:15.484Z,69.98
2019-01-15T06:32:34.612Z,70.25
2019-01-15T06:38:12.643Z,70.00
2019-01-15T06:40:41.852Z,69.71
2019-01-15T06:43:11.418Z,70.37
2019-01-15T06:45:41.030Z,69.99
2019-01-15T06:48:10.236Z,70.16
2019-01-15T06:50:39.790Z,70.11
2019-01-15T06:55:46.256Z,70.33
2019-01-15T06:58:15.525Z,70.44
2019-01-15T07:00:44.722Z,70.29
2019-01-15T07:03:13.929Z,70.44
2019-01-15T07:05:43.172Z,70.22
2019-01-15T07:08:33.517Z,70.38
2019-01-15T07:14:17.368Z,69.94
2019-01-15T07:17:07.322Z,70.21
2019-01-15T07:19:36.545Z,74.00
2019-01-15T07:28:16.196Z,67.90
2019-01-15T07:33:57.450Z,68.70
2019-01-15T07:36:26.650Z,68.83
2019-01-15T07:39:07.776Z,69.33
2019-01-15T07:41:28.476Z,69.36
2019-01-15T07:44:04.149Z,69.52
2019-01-15T07:46:28.943Z,69.63
2019-01-15T07:49:38.418Z,69.50
2019-01-15T07:52:07.629Z,69.10
2019-01-15T07:54:36.825Z,69.06
2019-01-15T07:57:25.260Z,68.99
2019-01-15T08:00:34.177Z,68.56
2019-01-15T08:03:03.512Z,68.30
2019-01-15T08:05:35.309Z,68.35
2019-01-15T08:08:25.045Z,68.07
2019-01-15T08:10:57.117Z,67.75
2019-01-15T08:16:02.070Z,67.40
2019-01-15T08:18:50.890Z,66.75
2019-01-15T08:21:20.112Z,66.82
2019-01-15T08:23:49.433Z,66.87
2019-01-15T08:26:38.354Z,66.35
2019-01-15T08:29:13.891Z,66.30
2019-01-15T08:32:02.070Z,66.38
2019-01-15T08:34:31.317Z,65.58
2019-01-15T08:37:03.123Z,65.51
2019-01-15T08:39:32.734Z,65.69
2019-01-15T08:42:03.810Z,65.70
2019-01-15T08:48:08.578Z,65.48
2019-01-15T08:50:51.660Z,65.09
2019-01-15T08:53:09.069Z,65.26
2019-01-15T08:55:58.722Z,65.10
2019-01-15T08:58:28.399Z,65.15
2019-01-15T09:00:59.756Z,64.85
2019-01-15T09:03:28.976Z,64.78
2019-01-15T09:05:58.707Z,64.07
2019-01-15T09:08:27.984Z,64.37
2019-01-15T09:10:59.548Z,64.63
2019-01-15T09:13:28.768Z,64.21
2019-01-15T09:15:58.186Z,64.05
2019-01-15T09:18:28.826Z,63.88
2019-01-15T09:20:58.573Z,64.14
2019-01-15T09:23:27.850Z,64.25
2019-01-15T09:25:57.576Z,63.89
2019-01-15T09:28:29.195Z,63.90
2019-01-15T09:30:58.582Z,63.66
2019-01-15T09:33:27.789Z,63.72
2019-01-15T09:35:57.041Z,63.91
2019-01-15T09:38:26.255Z,63.81
2019-01-15T09:40:55.484Z,63.47
2019-01-15T09:43:24.694Z,63.87
2019-01-15T09:45:54.217Z,63.42
2019-01-15T09:51:02.578Z,63.87
2019-01-15T09:53:31.798Z,63.94
2019-01-15T09:56:01.352Z,64.30
2019-01-15T09:58:30.673Z,63.34
2019-01-15T10:00:59.878Z,63.56
2019-01-15T10:03:29.102Z,63.00
2019-01-15T10:06:17.306Z,63.29
2019-01-15T10:08:46.522Z,63.44
2019-01-15T10:11:15.731Z,62.81
2019-01-15T10:13:45.003Z,63.29
2019-01-15T10:16:54.073Z,63.04
2019-01-15T10:19:24.247Z,62.57
2019-01-15T10:21:53.642Z,63.26
2019-01-15T10:25:02.780Z,62.18
2019-01-15T10:27:37.292Z,62.05
2019-01-15T10:33:19.971Z,61.99
2019-01-15T10:35:58.252Z,60.67
2019-01-15T10:39:07.514Z,60.62
2019-01-15T10:41:36.749Z,60.52
2019-01-15T10:44:05.984Z,60.01
2019-01-15T10:46:54.221Z,60.38
2019-01-15T10:49:23.433Z,59.80
2019-01-15T10:51:52.957Z,60.14
2019-01-15T10:54:22.185Z,59.47
2019-01-15T10:56:51.397Z,59.66
2019-01-15T10:59:20.616Z,59.10
2019-01-15T11:01:50.117Z,59.38
2019-01-15T11:04:19.482Z,59.19
2019-01-15T11:07:07.762Z,58.77
2019-01-15T11:09:36.993Z,57.78
2019-01-15T11:12:06.202Z,57.88
2019-01-15T11:17:15.412Z,58.37
2019-01-15T11:19:45.014Z,57.88
2019-01-15T11:22:14.210Z,57.95
2019-01-15T11:24:54.679Z,57.52
2019-01-15T11:33:32.654Z,57.45
2019-01-15T11:36:01.879Z,57.48
2019-01-15T11:38:37.158Z,56.86
2019-01-15T11:41:06.373Z,56.77
2019-01-15T11:43:35.585Z,56.62
2019-01-15T11:46:05.209Z,56.20
2019-01-15T11:48:51.025Z,55.96
2019-01-15T11:51:08.272Z,56.32
2019-01-15T11:53:37.472Z,56.70
2019-01-15T11:56:07.231Z,56.27
2019-01-15T11:58:36.635Z,56.67
2019-01-15T12:01:24.870Z,55.83
2019-01-15T12:04:13.015Z,56.25
2019-01-15T12:07:13.958Z,56.21
2019-01-15T12:09:51.060Z,55.92
2019-01-15T12:12:39.177Z,55.71
2019-01-15T12:15:27.448Z,56.21
2019-01-15T12:18:15.644Z,55.89
2019-01-15T12:21:24.257Z,55.52
2019-01-15T12:24:12.501Z,55.49
2019-01-15T12:27:19.721Z,55.67
2019-01-15T12:30:07.870Z,55.93
2019-01-15T12:32:55.987Z,55.94
2019-01-15T12:35:44.398Z,56.36
2019-01-15T12:38:29.307Z,55.96
2019-01-15T12:41:17.459Z,56.19
2019-01-15T12:44:05.955Z,55.90
2019-01-15T12:46:54.126Z,56.58
2019-01-15T12:49:42.246Z,56.73
2019-01-15T12:52:30.518Z,56.38
2019-01-15T12:55:18.664Z,56.52
2019-01-15T12:58:02.389Z,56.69
2019-01-15T13:00:50.536Z,56.46
2019-01-15T13:03:38.672Z,57.02
2019-01-15T13:06:26.823Z,56.85
2019-01-15T13:09:14.940Z,56.80
2019-01-15T13:12:03.157Z,57.05
2019-01-15T13:14:51.290Z,57.19
2019-01-15T13:17:39.433Z,57.36
2019-01-15T13:20:29.967Z,57.42
2019-01-15T13:23:18.139Z,57.37
2019-01-15T13:26:06.453Z,57.87
2019-01-15T13:28:54.627Z,58.29
2019-01-15T13:31:43.056Z,58.39
2019-01-15T13:34:31.172Z,58.69
2019-01-15T13:37:19.344Z,58.85
2019-01-15T13:40:07.474Z,59.01
2019-01-15T13:42:55.609Z,59.33
2019-01-15T13:45:43.724Z,59.40
2019-01-15T13:48:31.859Z,59.57
2019-01-15T13:51:20.472Z,59.50
2019-01-15T13:54:09.269Z,59.69
2019-01-15T13:56:58.963Z,60.15
2019-01-15T13:59:47.143Z,60.45
2019-01-15T14:02:35.280Z,60.91
2019-01-15T14:08:32.268Z,60.55
2019-01-15T14:11:20.695Z,60.51
2019-01-15T14:14:09.158Z,60.99
2019-01-15T14:16:57.272Z,61.24
2019-01-15T14:19:45.408Z,61.36
2019-01-15T14:22:28.229Z,61.23
2019-01-15T14:25:16.392Z,61.02
2019-01-15T14:28:04.512Z,61.01
2019-01-15T14:30:53.050Z,61.18
2019-01-15T14:33:41.438Z,61.20
2019-01-15T14:36:29.572Z,61.31
2019-01-15T14:39:17.956Z,61.46
2019-01-15T14:42:06.089Z,61.94
2019-01-15T14:44:54.220Z,62.18
2019-01-15T14:47:42.617Z,62.37
2019-01-15T14:50:31.338Z,62.22
2019-01-15T14:53:19.471Z,62.78
2019-01-15T14:56:08.034Z,62.93
2019-01-15T14:58:56.153Z,63.23
2019-01-15T15:01:44.322Z,63.75
2019-01-15T15:04:32.409Z,63.74
2019-01-15T15:07:20.543Z,64.19
2019-01-15T15:10:08.716Z,63.90
2019-01-15T15:12:56.843Z,64.06
2019-01-15T15:15:44.962Z,63.99
2019-01-15T15:18:33.105Z,64.07
2019-01-15T15:21:21.254Z,63.91
2019-01-15T15:24:09.444Z,64.08
2019-01-15T15:26:57.637Z,63.83
2019-01-15T15:29:45.758Z,63.80
2019-01-15T15:32:24.636Z,64.29
2019-01-15T15:35:12.750Z,64.25
2019-01-15T15:38:00.884Z,64.30
2019-01-15T15:40:49.112Z,64.31
2019-01-15T15:43:37.247Z,64.56
2019-01-15T15:46:25.648Z,64.02
2019-01-15T15:49:13.782Z,63.73
2019-01-15T15:52:01.929Z,63.99
2019-01-15T15:54:50.069Z,63.79
2019-01-15T15:57:38.488Z,63.62
2019-01-15T16:00:31.425Z,63.71
2019-01-15T16:03:19.557Z,63.63
2019-01-15T16:06:07.670Z,63.75
2019-01-15T16:08:56.638Z,63.55
2019-01-15T16:11:44.762Z,63.23
2019-01-15T16:14:32.896Z,63.41
2019-01-15T16:17:21.016Z,63.61
2019-01-15T16:20:09.445Z,63.78
2019-01-15T16:22:57.613Z,63.59
2019-01-15T16:25:33.455Z,63.01
2019-01-15T16:28:21.628Z,63.72
2019-01-15T16:31:09.764Z,63.48
2019-01-15T16:33:57.895Z,63.32
2019-01-15T16:36:46.008Z,63.62
2019-01-15T16:39:34.142Z,62.98
2019-01-15T16:42:22.250Z,62.66
2019-01-15T16:45:10.590Z,63.15
2019-01-15T16:47:58.700Z,63.21
2019-01-15T16:50:47.144Z,63.05
2019-01-15T16:53:35.252Z,63.23
2019-01-15T16:59:18.289Z,62.91
2019-01-15T17:02:06.415Z,62.68
2019-01-15T17:04:45.800Z,62.62
2019-01-15T17:07:25.060Z,62.71
2019-01-15T17:10:13.174Z,62.67
2019-01-15T17:13:01.430Z,62.79
2019-01-15T17:15:49.541Z,62.69
2019-01-15T17:18:25.048Z,62.77
2019-01-15T17:21:13.173Z,62.71
2019-01-15T17:24:01.337Z,62.70
2019-01-15T17:26:49.448Z,62.66
2019-01-15T17:29:26.962Z,62.95
2019-01-15T17:32:15.085Z,62.98
2019-01-15T17:35:03.243Z,63.18
2019-01-15T17:37:51.399Z,62.98
2019-01-15T17:40:39.844Z,62.85
2019-01-15T17:43:28.066Z,62.73
2019-01-15T17:46:16.490Z,63.20
2019-01-15T17:49:04.601Z,63.11
2019-01-15T17:51:52.740Z,62.87
2019-01-15T17:54:40.847Z,62.42
2019-01-15T17:57:29.276Z,62.21
2019-01-15T18:00:17.403Z,62.44
2019-01-15T18:03:01.095Z,62.65
2019-01-15T18:05:49.210Z,62.81
2019-01-15T18:08:37.621Z,62.62
2019-01-15T18:11:25.800Z,62.78
2019-01-15T18:14:13.941Z,62.79
2019-01-15T18:17:02.465Z,62.75
2019-01-15T18:19:50.582Z,62.66
2019-01-15T18:22:38.740Z,62.75
2019-01-15T18:25:27.189Z,62.98
2019-01-15T18:28:15.453Z,62.78
2019-01-15T18:31:03.560Z,62.75
2019-01-15T18:33:51.699Z,62.88
2019-01-15T18:36:39.808Z,62.99
2019-01-15T18:39:28.232Z,63.47
2019-01-15T18:42:16.371Z,63.40
2019-01-15T18:45:00.810Z,63.64
2019-01-15T18:47:48.942Z,63.99
2019-01-15T18:50:37.060Z,64.04
2019-01-15T18:53:25.204Z,64.12
2019-01-15T18:56:01.901Z,63.92
2019-01-15T18:58:50.335Z,64.02
2019-01-15T19:01:38.453Z,64.03
2019-01-15T19:04:26.929Z,63.59
2019-01-15T19:07:15.044Z,63.97
2019-01-15T19:10:03.219Z,63.94
2019-01-15T19:12:51.653Z,63.65
2019-01-15T19:15:58.788Z,63.93
2019-01-15T19:18:46.895Z,63.98
2019-01-15T19:21:35.159Z,64.39
2019-01-15T19:24:23.921Z,64.32
2019-01-15T19:27:12.059Z,64.66
2019-01-15T19:30:00.323Z,64.78
2019-01-15T19:32:48.506Z,64.96
2019-01-15T19:35:36.940Z,64.78
2019-01-15T19:38:25.347Z,64.77
2019-01-15T19:41:13.526Z,65.07
2019-01-15T19:44:01.706Z,65.36
2019-01-15T19:46:49.846Z,65.21
2019-01-15T19:49:29.642Z,65.46
2019-01-15T19:52:17.770Z,65.15
2019-01-15T19:55:05.923Z,65.57
2019-01-15T19:57:54.033Z,65.34
2019-01-15T20:00:40.774Z,65.46
2019-01-15T20:03:29.820Z,65.49
2019-01-15T20:06:18.785Z,65.42
2019-01-15T20:09:07.174Z,65.65
2019-01-15T20:11:55.319Z,65.61
2019-01-15T20:14:43.500Z,65.73
2019-01-15T20:17:24.474Z,65.83
2019-01-15T20:20:12.648Z,65.80
2019-01-15T20:23:01.084Z,66.08
2019-01-15T20:25:49.252Z,65.72
2019-01-15T20:28:37.789Z,65.82
2019-01-15T20:31:25.984Z,65.88
2019-01-15T20:34:14.410Z,65.62
2019-01-15T20:37:02.560Z,65.63
2019-01-15T20:39:51.868Z,65.69
2019-01-15T20:43:00.544Z,65.55
2019-01-15T20:45:48.730Z,65.42
2019-01-15T20:48:36.849Z,65.42
2019-01-15T20:51:25.190Z,65.57
2019-01-15T20:54:21.943Z,65.45
2019-01-15T20:57:32.446Z,65.60
2019-01-15T21:00:20.875Z,65.96
2019-01-15T21:03:22.986Z,65.66
2019-01-15T21:06:34.442Z,65.87
2019-01-15T21:15:27.202Z,66.13
2019-01-15T21:18:15.433Z,66.56
2019-01-15T21:21:03.985Z,66.52
2019-01-15T21:23:52.123Z,66.63
2019-01-15T21:26:40.294Z,66.97
2019-01-15T21:29:28.465Z,66.87
2019-01-15T21:32:16.618Z,66.89
2019-01-15T21:35:04.956Z,67.05
2019-01-15T21:37:56.133Z,67.03
2019-01-15T21:40:44.730Z,66.51
2019-01-15T21:43:32.875Z,66.86
2019-01-15T21:46:21.307Z,66.84
2019-01-15T21:49:09.425Z,67.24
2019-01-15T21:51:57.559Z,66.75
2019-01-15T21:54:45.676Z,67.13
2019-01-15T21:57:34.010Z,67.27
2019-01-15T22:00:22.254Z,67.25
2019-01-15T22:03:10.807Z,67.04
2019-01-15T22:05:58.913Z,66.88
2019-01-15T22:08:47.336Z,66.82
2019-01-15T22:11:26.693Z,66.80
2019-01-15T22:14:14.904Z,66.98
2019-01-15T22:17:03.321Z,66.71
2019-01-15T22:19:51.423Z,66.84
2019-01-15T22:22:39.558Z,67.13
2019-01-15T22:25:28.303Z,67.47
2019-01-15T22:28:16.480Z,67.48
2019-01-15T22:30:56.161Z,67.21
2019-01-15T22:33:44.306Z,67.42
2019-01-15T22:36:32.421Z,67.60
2019-01-15T22:39:20.567Z,67.77
2019-01-15T22:42:08.721Z,67.60
2019-01-15T22:44:56.969Z,67.49
2019-01-15T22:47:45.487Z,67.11
2019-01-15T22:50:33.676Z,67.38
2019-01-15T22:53:16.021Z,67.32
2019-01-15T22:56:04.447Z,67.65
2019-01-15T22:58:52.584Z,67.67
2019-01-15T23:02:03.634Z,67.53
2019-01-15T23:04:51.765Z,67.32
2019-01-15T23:07:39.898Z,67.51
2019-01-15T23:10:20.202Z,67.43
2019-01-15T23:13:08.347Z,67.30
2019-01-15T23:15:56.493Z,66.85
2019-01-15T23:18:44.639Z,66.87
2019-01-15T23:21:33.042Z,67.27
2019-01-15T23:24:21.190Z,67.19
2019-01-15T23:27:09.307Z,67.34
2019-01-15T23:29:57.475Z,67.20
2019-01-15T23:32:45.916Z,67.34
2019-01-15T23:35:34.129Z,67.07
2019-01-15T23:38:22.545Z,67.51
2019-01-15T23:41:10.757Z,67.50
2019-01-15T23:43:59.273Z,67.42
2019-01-15T23:46:47.384Z,67.00
2019-01-15T23:49:35.520Z,66.88
2019-01-15T23:55:32.540Z,67.23
2019-01-15T23:58:20.965Z,67.67
